createdAt,value
2019-01-04T00:00:03.190Z,9.14
2019-01-04T00:01:03.094Z,8.28
2019-01-04T00:02:02.948Z,7.98
2019-01-04T00:03:04.127Z,7.98
2019-01-04T00:04:02.831Z,7.76
2019-01-04T00:05:02.853Z,8.3
2019-01-04T00:06:03.481Z,8.3
2019-01-04T00:07:03.722Z,8.51
2019-01-04T00:08:03.700Z,8.51
2019-01-04T00:09:03.581Z,7.58
2019-01-04T00:10:03.033Z,8.79
2019-01-04T00:11:03.166Z,8.36
2019-01-04T00:12:03.462Z,8.36
2019-01-04T00:13:03.290Z,7.64
2019-01-04T00:14:03.740Z,7.64
2019-01-04T00:15:03.555Z,7.86
2019-01-04T00:16:03.358Z,8.57
2019-01-04T00:17:02.801Z,8.53
2019-01-04T00:18:02.832Z,9.21
2019-01-04T00:19:03.605Z,9.21
2019-01-04T00:20:03.588Z,8.01
2019-01-04T00:22:03.108Z,7.96
2019-01-04T00:23:03.071Z,8.13
2019-01-04T00:24:03.084Z,7.55
2019-01-04T00:25:03.004Z,8.73
2019-01-04T00:26:03.546Z,8.48
2019-01-04T00:27:03.316Z,8.34
2019-01-04T00:28:03.063Z,8.56
2019-01-04T00:29:03.046Z,8.22
2019-01-04T00:30:03.534Z,8.94
2019-01-04T00:31:03.244Z,8.66
2019-01-04T00:32:02.935Z,8.66
2019-01-04T00:33:03.062Z,8.33
2019-01-04T00:34:03.562Z,8.33
2019-01-04T00:35:03.182Z,9.06
2019-01-04T00:36:02.938Z,9.06
2019-01-04T00:37:03.498Z,8.44
2019-01-04T00:38:03.426Z,8.44
2019-01-04T00:39:04.980Z,8.08
2019-01-04T00:40:03.663Z,7.36
2019-01-04T00:41:03.031Z,7.92
2019-01-04T00:42:02.913Z,6.76
2019-01-04T00:43:03.693Z,9.01
2019-01-04T00:44:03.081Z,7.76
2019-01-04T00:45:03.266Z,8.51
2019-01-04T00:46:03.604Z,8.51
2019-01-04T00:47:03.152Z,7.55
2019-01-04T00:48:03.041Z,8.91
2019-01-04T00:49:03.525Z,7.48
2019-01-04T00:50:03.975Z,7.48
2019-01-04T00:51:03.419Z,8.88
2019-01-04T00:52:03.691Z,8.01
2019-01-04T00:53:03.264Z,9.25
2019-01-04T00:54:03.640Z,9.25
2019-01-04T00:55:03.106Z,7.95
2019-01-04T00:56:03.402Z,7.95
2019-01-04T00:57:03.781Z,8.19
2019-01-04T00:58:03.509Z,8.19
2019-01-04T00:59:02.996Z,7.98
2019-01-04T01:00:03.690Z,7.98
2019-01-04T01:01:03.377Z,8.94
2019-01-04T01:02:03.048Z,8.94
2019-01-04T01:03:03.423Z,8.75
2019-01-04T01:05:03.374Z,8.08
2019-01-04T01:06:02.541Z,7.85
2019-01-04T01:07:01.957Z,8.01
2019-01-04T01:08:03.485Z,8.01
2019-01-04T01:09:02.971Z,7.69
2019-01-04T01:10:03.294Z,8.32
2019-01-04T01:11:03.270Z,8.88
2019-01-04T01:12:03.550Z,9.09
2019-01-04T01:13:02.944Z,7.91
2019-01-04T01:14:02.779Z,7.91
2019-01-04T01:15:02.943Z,8.39
2019-01-04T01:16:03.089Z,8.95
2019-01-04T01:17:03.425Z,8.76
2019-01-04T01:18:03.848Z,8.76
2019-01-04T01:19:03.755Z,8.89
2019-01-04T01:20:03.865Z,8.89
2019-01-04T01:21:02.940Z,8.19
2019-01-04T01:22:03.224Z,8.19
2019-01-04T01:23:02.746Z,8.38
2019-01-04T01:24:12.915Z,9.98
2019-01-04T01:25:03.059Z,9.98
2019-01-04T01:26:03.064Z,8.08
2019-01-04T01:27:03.728Z,8.9
2019-01-04T01:28:03.599Z,8.9
2019-01-04T01:29:03.166Z,9.46
2019-01-04T01:30:03.198Z,8.92
2019-01-04T01:31:04.655Z,8.92
2019-01-04T01:33:03.515Z,9.48
2019-01-04T01:34:02.981Z,8.96
2019-01-04T01:35:02.685Z,8.96
2019-01-04T01:36:03.136Z,9.46
2019-01-04T01:37:01.720Z,9.02
2019-01-04T01:38:03.057Z,10.41
2019-01-04T01:39:03.385Z,7.85
2019-01-04T01:40:03.680Z,8.66
2019-01-04T01:41:02.866Z,7.98
2019-01-04T01:42:02.851Z,10.62
2019-01-04T01:43:02.670Z,9.61
2019-01-04T01:44:02.911Z,9.75
2019-01-04T01:45:03.337Z,9.75
2019-01-04T01:46:02.906Z,8.55
2019-01-04T01:47:03.603Z,8.89
2019-01-04T01:48:02.950Z,8.36
2019-01-04T01:49:03.645Z,7.88
2019-01-04T01:50:03.608Z,9.22
2019-01-04T01:51:03.543Z,9.22
2019-01-04T01:52:03.342Z,9.22
2019-01-04T01:53:02.668Z,9.28
2019-01-04T01:54:02.764Z,9.06
2019-01-04T01:55:02.767Z,9.18
2019-01-04T01:56:03.547Z,9.18
2019-01-04T01:57:03.222Z,9.07
2019-01-04T01:58:02.391Z,9.29
2019-01-04T01:59:04.306Z,9.29
2019-01-04T02:00:03.664Z,9.3
2019-01-04T02:01:03.730Z,8.46
2019-01-04T02:02:03.465Z,9.2
2019-01-04T02:03:02.910Z,9.16
2019-01-04T02:04:03.066Z,8.54
2019-01-04T02:05:03.279Z,8.54
2019-01-04T02:06:02.994Z,9.91
2019-01-04T02:07:03.640Z,8.28
2019-01-04T02:08:03.140Z,8.98
2019-01-04T02:09:07.626Z,8.98
2019-01-04T02:10:03.587Z,9.62
2019-01-04T02:11:03.138Z,9.68
2019-01-04T02:12:02.607Z,9.68
2019-01-04T02:13:03.442Z,9.49
2019-01-04T02:14:04.140Z,9.49
2019-01-04T02:15:03.626Z,9.62
2019-01-04T02:16:03.443Z,9.62
2019-01-04T02:17:03.449Z,8.97
2019-01-04T02:18:03.000Z,8.97
2019-01-04T02:19:03.403Z,10.35
2019-01-04T02:20:02.918Z,10.34
2019-01-04T02:21:02.764Z,9.44
2019-01-04T02:22:03.211Z,10.56
2019-01-04T02:23:03.388Z,9.14
2019-01-04T02:24:02.007Z,9.98
2019-01-04T02:25:03.793Z,9.98
2019-01-04T02:26:03.523Z,10.73
2019-01-04T02:27:03.004Z,10.95
2019-01-04T02:28:03.643Z,10.25
2019-01-04T02:29:03.704Z,11.13
2019-01-04T02:30:03.166Z,9.55
2019-01-04T02:31:03.535Z,10.97
2019-01-04T02:32:03.452Z,10.97
2019-01-04T02:33:03.271Z,10.24
2019-01-04T02:34:02.900Z,9.95
2019-01-04T02:35:03.193Z,10.04
2019-01-04T02:36:03.627Z,10.66
2019-01-04T02:37:03.589Z,10.66
2019-01-04T02:38:03.639Z,11.43
2019-01-04T02:39:02.842Z,11.43
2019-01-04T02:40:03.430Z,11.43
2019-01-04T02:41:02.970Z,9.88
2019-01-04T02:43:03.453Z,10.34
2019-01-04T02:44:03.376Z,11.53
2019-01-04T02:45:05.538Z,11.53
2019-01-04T02:46:02.093Z,11.1
2019-01-04T02:47:02.583Z,11.1
2019-01-04T02:48:02.881Z,10.52
2019-01-04T02:49:02.979Z,10.58
2019-01-04T02:50:03.107Z,11.09
2019-01-04T02:51:03.083Z,11.3
2019-01-04T02:52:03.906Z,11.3
2019-01-04T02:53:03.305Z,11.92
2019-01-04T02:54:03.522Z,11.92
2019-01-04T02:55:03.232Z,11.55
2019-01-04T02:56:03.837Z,11.55
2019-01-04T02:57:03.072Z,11.46
2019-01-04T02:58:03.344Z,11.46
2019-01-04T02:59:03.545Z,9.79
2019-01-04T03:00:03.491Z,9.79
2019-01-04T03:01:03.100Z,10.8
2019-01-04T03:02:03.097Z,9.94
2019-01-04T03:03:03.737Z,10.83
2019-01-04T03:04:02.995Z,11.06
2019-01-04T03:06:03.931Z,10.78
2019-01-04T03:07:04.375Z,10.98
2019-01-04T03:08:03.744Z,10.21
2019-01-04T03:09:02.418Z,10.08
2019-01-04T03:11:04.342Z,11.06
2019-01-04T03:12:04.918Z,9.55
2019-01-04T03:13:03.722Z,10.18
2019-01-04T03:14:03.332Z,10.38
2019-01-04T03:15:03.478Z,9.94
2019-01-04T03:16:03.558Z,9.94
2019-01-04T03:17:02.818Z,9.72
2019-01-04T03:18:03.942Z,8.77
2019-01-04T03:19:03.822Z,9.64
2019-01-04T03:20:03.157Z,9.42
2019-01-04T03:21:02.977Z,10.48
2019-01-04T03:22:03.068Z,10.65
2019-01-04T03:23:03.418Z,10.15
2019-01-04T03:24:03.574Z,9.47
2019-01-04T03:25:03.330Z,9.47
2019-01-04T03:26:03.174Z,9.31
2019-01-04T03:27:03.576Z,9.31
2019-01-04T03:28:03.111Z,10.19
2019-01-04T03:29:03.194Z,10.19
2019-01-04T03:30:03.124Z,10.96
2019-01-04T03:31:03.037Z,10.96
2019-01-04T03:32:03.615Z,9.87
2019-01-04T03:33:03.371Z,9.92
2019-01-04T03:34:02.861Z,9.88
2019-01-04T03:35:04.095Z,9.88
2019-01-04T03:36:02.996Z,10.16
2019-01-04T03:37:02.762Z,9.98
2019-01-04T03:38:03.633Z,10.15
2019-01-04T03:39:03.481Z,10.87
2019-01-04T03:40:02.860Z,10.78
2019-01-04T03:41:03.453Z,11.62
2019-01-04T03:42:03.566Z,10.39
2019-01-04T03:43:03.499Z,10.68
2019-01-04T03:44:02.813Z,9.38
2019-01-04T03:45:03.928Z,11.29
2019-01-04T03:46:03.180Z,10.74
2019-01-04T03:47:03.341Z,10.64
2019-01-04T03:48:02.961Z,10.54
2019-01-04T03:49:03.078Z,10.54
2019-01-04T03:50:03.147Z,11.65
2019-01-04T03:51:02.915Z,10.87
2019-01-04T03:52:05.600Z,10.12
2019-01-04T03:53:03.994Z,10.12
2019-01-04T03:54:03.489Z,10.92
2019-01-04T03:55:03.089Z,10.44
2019-01-04T03:56:02.861Z,11.26
2019-01-04T03:57:02.964Z,11.26
2019-01-04T03:58:02.944Z,10.36
2019-01-04T03:59:03.360Z,10.36
2019-01-04T04:01:03.672Z,11.24
2019-01-04T04:02:03.219Z,10.95
2019-01-04T04:03:03.032Z,10.95
2019-01-04T04:04:02.940Z,11.9
2019-01-04T04:05:03.802Z,11.32
2019-01-04T04:06:02.877Z,10.89
2019-01-04T04:07:02.947Z,11.79
2019-01-04T04:08:03.130Z,12.7
2019-01-04T04:09:03.655Z,13.6
2019-01-04T04:10:03.498Z,12.51
2019-01-04T04:11:03.482Z,12.01
2019-01-04T04:12:03.467Z,11.97
2019-01-04T04:13:02.953Z,11.25
2019-01-04T04:14:03.271Z,10.71
2019-01-04T04:15:03.198Z,12.45
2019-01-04T04:16:03.186Z,10.65
2019-01-04T04:17:04.063Z,10.65
2019-01-04T04:18:03.527Z,11.56
2019-01-04T04:19:03.072Z,11.56
2019-01-04T04:20:03.828Z,11.24
2019-01-04T04:21:04.012Z,11.24
2019-01-04T04:22:04.709Z,12.83
2019-01-04T04:23:03.234Z,12.75
2019-01-04T04:24:03.506Z,12.07
2019-01-04T04:25:03.296Z,12.07
2019-01-04T04:27:02.876Z,11.22
2019-01-04T04:28:03.045Z,11.71
2019-01-04T04:29:02.857Z,12.87
2019-01-04T04:30:03.506Z,12.87
2019-01-04T04:31:03.503Z,12.49
2019-01-04T04:33:03.719Z,11.31
2019-01-04T04:34:03.760Z,10.54
2019-01-04T04:35:03.258Z,12.27
2019-01-04T04:36:03.257Z,12.12
2019-01-04T04:37:03.606Z,12.74
2019-01-04T04:38:03.467Z,11.27
2019-01-04T04:39:03.333Z,10.12
2019-01-04T04:40:03.352Z,10.25
2019-01-04T04:41:03.824Z,11.11
2019-01-04T04:42:02.833Z,11.7
2019-01-04T04:43:02.854Z,11.15
2019-01-04T04:44:03.133Z,10.77
2019-01-04T04:45:03.310Z,10.49
2019-01-04T04:46:02.861Z,10.96
2019-01-04T04:47:03.082Z,10.05
2019-01-04T04:48:03.613Z,10.99
2019-01-04T04:49:03.111Z,11.27
2019-01-04T04:50:02.872Z,11.27
2019-01-04T04:51:02.953Z,11.06
2019-01-04T04:52:02.758Z,11.06
2019-01-04T04:53:02.788Z,11.65
2019-01-04T04:54:03.684Z,11.65
2019-01-04T04:55:03.777Z,11.57
2019-01-04T04:56:03.398Z,11.71
2019-01-04T04:57:02.899Z,10.58
2019-01-04T04:58:03.025Z,10.64
2019-01-04T04:59:02.767Z,11.34
2019-01-04T05:00:03.602Z,11.34
2019-01-04T05:01:03.573Z,11.34
2019-01-04T05:02:03.232Z,11.34
2019-01-04T05:03:02.816Z,10.95
2019-01-04T05:04:03.793Z,11.17
2019-01-04T05:05:03.748Z,11.01
2019-01-04T05:06:03.464Z,11.01
2019-01-04T05:07:03.650Z,10.85
2019-01-04T05:08:03.430Z,10.85
2019-01-04T05:09:02.839Z,10.16
2019-01-04T05:10:03.377Z,10.16
2019-01-04T05:11:03.338Z,10.15
2019-01-04T05:12:03.291Z,10.43
2019-01-04T05:13:03.352Z,10.85
2019-01-04T05:14:04.050Z,10.85
2019-01-04T05:15:06.310Z,10.23
2019-01-04T05:17:03.686Z,10.35
2019-01-04T05:18:03.426Z,11.63
2019-01-04T05:19:02.949Z,10.98
2019-01-04T05:20:03.010Z,11.71
2019-01-04T05:21:02.784Z,11.31
2019-01-04T05:22:03.233Z,11.16
2019-01-04T05:23:03.034Z,11.16
2019-01-04T05:25:03.809Z,11.64
2019-01-04T05:26:02.923Z,10.24
2019-01-04T05:27:03.406Z,11.51
2019-01-04T05:28:03.067Z,11.51
2019-01-04T05:29:03.580Z,11.18
2019-01-04T05:30:03.822Z,11.18
2019-01-04T05:31:03.479Z,11.86
2019-01-04T05:32:03.716Z,11.15
2019-01-04T05:33:03.453Z,11.15
2019-01-04T05:34:03.553Z,10.4
2019-01-04T05:35:03.511Z,11.76
2019-01-04T05:36:02.102Z,11.12
2019-01-04T05:37:03.181Z,10.8
2019-01-04T05:38:02.696Z,11.65
2019-01-04T05:39:03.396Z,11.04
2019-01-04T05:40:02.995Z,9.87
2019-01-04T05:41:03.507Z,11.23
2019-01-04T05:42:03.335Z,10.42
2019-01-04T05:43:03.644Z,10.65
2019-01-04T05:44:02.703Z,11.81
2019-01-04T05:45:02.992Z,10.47
2019-01-04T05:46:03.526Z,9.75
2019-01-04T05:47:02.940Z,11.27
2019-01-04T05:48:03.258Z,11.05
2019-01-04T05:49:03.266Z,10.66
2019-01-04T05:50:02.956Z,10.13
2019-01-04T05:51:03.264Z,11.29
2019-01-04T05:52:02.891Z,11.04
2019-01-04T05:53:03.163Z,10.34
2019-01-04T05:54:03.178Z,10.34
2019-01-04T05:55:03.572Z,11.52
2019-01-04T05:56:04.154Z,11.52
2019-01-04T05:57:03.145Z,11.73
2019-01-04T05:59:03.139Z,9.53
2019-01-04T06:00:03.407Z,11.36
2019-01-04T06:01:02.996Z,11.95
2019-01-04T06:02:03.151Z,11.95
2019-01-04T06:03:02.817Z,10.3
2019-01-04T06:04:03.288Z,11.31
2019-01-04T06:05:03.312Z,10.38
2019-01-04T06:06:03.150Z,11.58
2019-01-04T06:07:03.825Z,10.03
2019-01-04T06:08:03.398Z,10.03
2019-01-04T06:09:04.931Z,10.09
2019-01-04T06:10:03.077Z,11.04
2019-01-04T06:11:03.495Z,11.71
2019-01-04T06:12:02.948Z,11.84
2019-01-04T06:13:03.008Z,14.15
2019-01-04T06:14:03.057Z,12.93
2019-01-04T06:15:04.028Z,12.93
2019-01-04T06:16:03.548Z,11.94
2019-01-04T06:17:03.407Z,12.8
2019-01-04T06:18:02.879Z,12.96
2019-01-04T06:19:04.588Z,12.96
2019-01-04T06:20:03.907Z,13.41
2019-01-04T06:21:03.180Z,12.85
2019-01-04T06:22:02.807Z,13.45
2019-01-04T06:23:03.673Z,11.94
2019-01-04T06:24:03.244Z,12.92
2019-01-04T06:25:03.067Z,11.53
2019-01-04T06:26:03.639Z,11.53
2019-01-04T06:27:03.752Z,13.39
2019-01-04T06:28:02.977Z,13.39
2019-01-04T06:29:03.212Z,12.38
2019-01-04T06:30:02.879Z,12.88
2019-01-04T06:31:03.739Z,13.04
2019-01-04T06:32:03.888Z,13.04
2019-01-04T06:33:03.374Z,14.15
2019-01-04T06:34:03.169Z,13.18
2019-01-04T06:35:06.601Z,13.77
2019-01-04T06:36:03.146Z,13.77
2019-01-04T06:37:02.349Z,12.64
2019-01-04T06:38:03.032Z,12.64
2019-01-04T06:39:04.438Z,12.64
2019-01-04T06:40:03.147Z,12.68
2019-01-04T06:41:03.816Z,13.18
2019-01-04T06:42:02.846Z,13.65
2019-01-04T06:43:03.640Z,13.65
2019-01-04T06:44:03.175Z,13.94
2019-01-04T06:45:02.869Z,13.94
2019-01-04T06:46:02.993Z,13.15
2019-01-04T06:47:02.917Z,13.15
2019-01-04T06:48:03.602Z,13.74
2019-01-04T06:49:03.281Z,13.74
2019-01-04T06:50:03.118Z,13.29
2019-01-04T06:51:04.692Z,13.29
2019-01-04T06:52:02.818Z,13.74
2019-01-04T06:53:03.696Z,13.74
2019-01-04T06:54:03.727Z,12.48
2019-01-04T06:55:03.645Z,12.72
2019-01-04T06:56:03.051Z,13.75
2019-01-04T06:57:02.895Z,14.37
2019-01-04T06:58:04.091Z,14.37
2019-01-04T06:59:03.277Z,14.34
2019-01-04T07:00:02.825Z,13.66
2019-01-04T07:01:03.031Z,12.49
2019-01-04T07:02:03.580Z,13.26
2019-01-04T07:03:02.818Z,12.91
2019-01-04T07:04:02.963Z,12.74
2019-01-04T07:05:03.219Z,13.44
2019-01-04T07:06:02.640Z,14.48
2019-01-04T07:07:03.448Z,14.48
2019-01-04T07:08:03.432Z,13.44
2019-01-04T07:09:03.031Z,14.05
2019-01-04T07:10:03.032Z,13.45
2019-01-04T07:11:03.779Z,13.45
2019-01-04T07:12:03.606Z,15.66
2019-01-04T07:13:03.618Z,14.75
2019-01-04T07:14:03.347Z,14.11
2019-01-04T07:15:03.247Z,14.22
2019-01-04T07:16:03.263Z,13.52
2019-01-04T07:17:02.915Z,13.52
2019-01-04T07:18:02.983Z,14.13
2019-01-04T07:19:03.124Z,13.45
2019-01-04T07:20:03.284Z,13.46
2019-01-04T07:21:03.070Z,13.46
2019-01-04T07:22:03.035Z,16.05
2019-01-04T07:23:03.009Z,17.3
2019-01-04T07:24:05.478Z,17.3
2019-01-04T07:25:03.217Z,16.19
2019-01-04T07:26:03.701Z,14.44
2019-01-04T07:27:03.655Z,14.43
2019-01-04T07:28:03.082Z,14.09
2019-01-04T07:29:03.679Z,14.28
2019-01-04T07:30:03.298Z,14.28
2019-01-04T07:31:02.881Z,13.14
2019-01-04T07:32:04.400Z,14.06
2019-01-04T07:33:02.973Z,14.06
2019-01-04T07:34:03.578Z,13.27
2019-01-04T07:35:03.546Z,13.36
2019-01-04T07:36:03.544Z,13.36
2019-01-04T07:37:03.543Z,14.78
2019-01-04T07:38:03.117Z,14.78
2019-01-04T07:39:03.524Z,13.94
2019-01-04T07:40:03.221Z,13.94
2019-01-04T07:41:03.256Z,13.76
2019-01-04T07:42:03.686Z,13.76
2019-01-04T07:43:03.992Z,13.31
2019-01-04T07:44:03.469Z,12.82
2019-01-04T07:45:02.830Z,13.76
2019-01-04T07:46:03.518Z,13.76
2019-01-04T07:47:03.028Z,13.76
2019-01-04T07:48:03.638Z,13.72
2019-01-04T07:49:03.459Z,14.54
2019-01-04T07:50:02.979Z,14.65
2019-01-04T07:51:01.826Z,16.25
2019-01-04T07:52:03.645Z,16.65
2019-01-04T07:53:03.107Z,14.68
2019-01-04T07:54:03.776Z,16.19
2019-01-04T07:55:03.234Z,16.19
2019-01-04T07:56:03.696Z,14.81
2019-01-04T07:57:02.778Z,12.46
2019-01-04T07:58:03.531Z,14.79
2019-01-04T07:59:03.642Z,14.79
2019-01-04T08:00:03.252Z,13.91
2019-01-04T08:01:03.277Z,13.02
2019-01-04T08:02:03.740Z,13.02
2019-01-04T08:03:03.318Z,13.76
2019-01-04T08:04:02.798Z,13.39
2019-01-04T08:05:03.382Z,14.98
2019-01-04T08:06:03.258Z,14.96
2019-01-04T08:07:03.095Z,14.96
2019-01-04T08:08:03.030Z,13.62
2019-01-04T08:09:03.701Z,13
2019-01-04T08:10:04.309Z,14.58
2019-01-04T08:11:03.513Z,14.31
2019-01-04T08:12:03.618Z,13.04
2019-01-04T08:13:01.613Z,14.05
2019-01-04T08:14:03.010Z,12.89
2019-01-04T08:15:03.565Z,14.41
2019-01-04T08:16:03.821Z,12.75
2019-01-04T08:17:03.229Z,12.75
2019-01-04T08:18:03.313Z,14.45
2019-01-04T08:19:03.137Z,15.27
2019-01-04T08:20:03.728Z,14.41
2019-01-04T08:21:03.933Z,14.41
2019-01-04T08:22:03.483Z,15.02
2019-01-04T08:23:03.242Z,15.02
2019-01-04T08:24:03.000Z,15.37
2019-01-04T08:25:03.153Z,15.37
2019-01-04T08:26:03.490Z,13.8
2019-01-04T08:27:05.956Z,13.94
2019-01-04T08:28:03.591Z,14.79
2019-01-04T08:29:03.327Z,14.48
2019-01-04T08:30:03.259Z,14.48
2019-01-04T08:31:03.497Z,15.58
2019-01-04T08:32:03.611Z,14.75
2019-01-04T08:33:03.292Z,14.72
2019-01-04T08:34:03.458Z,15.62
2019-01-04T08:35:03.631Z,14.41
2019-01-04T08:36:03.380Z,16.17
2019-01-04T08:37:03.684Z,13.71
2019-01-04T08:38:03.258Z,13.71
2019-01-04T08:39:03.238Z,15.29
2019-01-04T08:40:03.217Z,15.78
2019-01-04T08:41:03.435Z,14.61
2019-01-04T08:42:02.999Z,16.16
2019-01-04T08:43:02.915Z,15.64
2019-01-04T08:44:03.589Z,15.24
2019-01-04T08:45:03.828Z,15.24
2019-01-04T08:46:03.406Z,15.05
2019-01-04T08:48:03.342Z,16.5
2019-01-04T08:49:02.669Z,15.72
2019-01-04T08:50:03.657Z,15.23
2019-01-04T08:51:02.125Z,16.97
2019-01-04T08:52:03.577Z,17.42
2019-01-04T08:53:01.893Z,16.59
2019-01-04T08:54:03.019Z,16.02
2019-01-04T08:55:03.025Z,16.8
2019-01-04T08:56:03.312Z,15.94
2019-01-04T08:57:02.995Z,16.75
2019-01-04T08:58:03.075Z,16.54
2019-01-04T08:59:03.718Z,15.24
2019-01-04T09:00:04.678Z,16.62
2019-01-04T09:01:02.990Z,16.62
2019-01-04T09:02:03.394Z,16.14
2019-01-04T09:03:02.987Z,16.82
2019-01-04T09:04:03.152Z,17.16
2019-01-04T09:05:02.787Z,17.16
2019-01-04T09:06:02.774Z,16.52
2019-01-04T09:07:03.182Z,16.77
2019-01-04T09:08:03.686Z,16.94
2019-01-04T09:09:03.210Z,16.92
2019-01-04T09:10:03.574Z,15.71
2019-01-04T09:11:01.955Z,17.9
2019-01-04T09:12:03.687Z,17.9
2019-01-04T09:13:02.793Z,17.8
2019-01-04T09:14:03.561Z,17.8
2019-01-04T09:15:03.311Z,16.7
2019-01-04T09:16:02.929Z,17.49
2019-01-04T09:17:02.775Z,17.24
2019-01-04T09:18:02.892Z,15.52
2019-01-04T09:19:02.961Z,18.02
2019-01-04T09:20:03.380Z,17.11
2019-01-04T09:21:03.288Z,18.66
2019-01-04T09:22:04.973Z,17.98
2019-01-04T09:23:03.100Z,17.98
2019-01-04T09:24:03.115Z,17.24
2019-01-04T09:25:02.824Z,17.24
2019-01-04T09:26:03.234Z,18.31
2019-01-04T09:27:03.006Z,17.72
2019-01-04T09:28:03.032Z,17.96
2019-01-04T09:29:03.824Z,17.96
2019-01-04T09:30:04.396Z,19.69
2019-01-04T09:31:03.030Z,18.96
2019-01-04T09:32:03.349Z,18.96
2019-01-04T09:33:03.690Z,18.16
2019-01-04T09:34:03.140Z,17.64
2019-01-04T09:35:02.685Z,19.45
2019-01-04T09:36:02.961Z,19.25
2019-01-04T09:37:03.523Z,18.94
2019-01-04T09:38:03.002Z,18.7
2019-01-04T09:39:03.563Z,18.39
2019-01-04T09:40:03.396Z,20.51
2019-01-04T09:41:02.964Z,19.22
2019-01-04T09:42:03.185Z,20.13
2019-01-04T09:43:01.989Z,18.79
2019-01-04T09:44:03.632Z,18.63
2019-01-04T09:45:03.342Z,19.78
2019-01-04T09:46:03.047Z,19.12
2019-01-04T09:47:03.321Z,18.08
2019-01-04T09:48:02.945Z,18.08
2019-01-04T09:49:03.152Z,19.25
2019-01-04T09:50:03.882Z,20.12
2019-01-04T09:51:03.392Z,20.12
2019-01-04T09:52:03.572Z,21.18
2019-01-04T09:53:03.348Z,21.19
2019-01-04T09:54:03.710Z,20.14
2019-01-04T09:55:03.850Z,20.14
2019-01-04T09:56:02.792Z,19.5
2019-01-04T09:57:03.497Z,18.74
2019-01-04T09:58:03.374Z,21.05
2019-01-04T09:59:02.914Z,21.38
2019-01-04T10:00:03.250Z,19.14
2019-01-04T10:01:04.087Z,19.14
2019-01-04T10:02:02.803Z,20.65
2019-01-04T10:03:03.688Z,20.88
2019-01-04T10:04:03.131Z,21.88
2019-01-04T10:06:03.365Z,20.08
2019-01-04T10:07:03.191Z,20.08
2019-01-04T10:08:03.230Z,20.3
2019-01-04T10:09:03.604Z,20.3
2019-01-04T10:10:03.009Z,19.15
2019-01-04T10:11:03.201Z,20.84
2019-01-04T10:12:03.258Z,21.89
2019-01-04T10:13:05.508Z,21.89
2019-01-04T10:14:03.435Z,20.86
2019-01-04T10:15:03.517Z,20.94
2019-01-04T10:16:02.912Z,20.94
2019-01-04T10:17:03.345Z,20.81
2019-01-04T10:18:03.525Z,19.89
2019-01-04T10:20:03.514Z,20.05
2019-01-04T10:21:03.782Z,20.05
2019-01-04T10:22:01.920Z,22.05
2019-01-04T10:23:03.336Z,22.05
2019-01-04T10:24:03.793Z,21.14
2019-01-04T10:25:02.865Z,22.08
2019-01-04T10:26:02.661Z,22.8
2019-01-04T10:27:03.376Z,21.96
2019-01-04T10:28:03.461Z,23.39
2019-01-04T10:29:03.606Z,22.58
2019-01-04T10:30:04.190Z,21.35
2019-01-04T10:31:04.342Z,23.04
2019-01-04T10:32:03.686Z,22.61
2019-01-04T10:33:02.816Z,22.61
2019-01-04T10:34:03.266Z,23.32
2019-01-04T10:35:02.901Z,23.71
2019-01-04T10:36:03.113Z,21.81
2019-01-04T10:37:03.795Z,21.81
2019-01-04T10:38:03.509Z,23.52
2019-01-04T10:39:03.638Z,24.52
2019-01-04T10:40:03.458Z,20.61
2019-01-04T10:41:03.225Z,22.22
2019-01-04T10:42:03.332Z,24.14
2019-01-04T10:43:03.484Z,24.14
2019-01-04T10:44:03.640Z,21.72
2019-01-04T10:46:02.818Z,22.17
2019-01-04T10:47:03.032Z,22.17
2019-01-04T10:48:01.938Z,23.1
2019-01-04T10:49:03.166Z,21.48
2019-01-04T10:50:03.593Z,22.41
2019-01-04T10:51:03.865Z,22.24
2019-01-04T10:52:03.692Z,22.05
2019-01-04T10:53:03.380Z,22.05
2019-01-04T10:54:03.462Z,23.15
2019-01-04T10:55:03.177Z,23.15
2019-01-04T10:56:03.198Z,22.29
2019-01-04T10:57:02.949Z,22.29
2019-01-04T10:58:03.197Z,20.35
2019-01-04T10:59:04.137Z,20.35
2019-01-04T11:00:03.341Z,21.42
2019-01-04T11:01:03.868Z,21.42
2019-01-04T11:02:03.476Z,22.74
2019-01-04T11:03:03.132Z,21.78
2019-01-04T11:04:03.722Z,20.23
2019-01-04T11:05:03.917Z,20.23
2019-01-04T11:06:02.849Z,22.2
2019-01-04T11:08:03.425Z,22.65
2019-01-04T11:09:03.743Z,22.65
2019-01-04T11:11:03.858Z,23.44
2019-01-04T11:12:03.565Z,20.95
2019-01-04T11:13:02.178Z,20.12
2019-01-04T11:14:03.469Z,20.12
2019-01-04T11:15:03.187Z,22.37
2019-01-04T11:16:02.752Z,21.39
2019-01-04T11:17:02.858Z,22.48
2019-01-04T11:18:10.107Z,21.42
2019-01-04T11:19:03.758Z,21.76
2019-01-04T11:20:05.056Z,20.59
2019-01-04T11:22:03.121Z,21.95
2019-01-04T11:23:03.549Z,19.86
2019-01-04T11:24:03.811Z,21.53
2019-01-04T11:25:03.090Z,20.51
2019-01-04T11:26:03.222Z,20.51
2019-01-04T11:27:03.195Z,21.96
2019-01-04T11:28:03.459Z,22.64
2019-01-04T11:29:06.996Z,22.64
2019-01-04T11:30:05.649Z,22.01
2019-01-04T11:31:03.189Z,20.23
2019-01-04T11:32:03.574Z,21.32
2019-01-04T11:33:03.709Z,18.75
2019-01-04T11:34:02.808Z,20.72
2019-01-04T11:35:03.386Z,21.7
2019-01-04T11:38:03.422Z,20.58
2019-01-04T11:39:03.435Z,20.58
2019-01-04T11:40:03.127Z,20.58
2019-01-04T11:41:03.251Z,20.21
2019-01-04T11:42:03.637Z,19.62
2019-01-04T11:43:01.945Z,21.44
2019-01-04T11:44:03.806Z,21.44
2019-01-04T11:45:02.936Z,20.85
2019-01-04T11:46:03.547Z,20.32
2019-01-04T11:47:02.844Z,21.67
2019-01-04T11:48:02.623Z,19.91
2019-01-04T11:49:03.281Z,20.29
2019-01-04T11:50:03.015Z,20.34
2019-01-04T11:51:02.931Z,21.12
2019-01-04T11:52:03.733Z,21.12
2019-01-04T11:53:03.513Z,20.52
2019-01-04T11:54:03.093Z,20.52
2019-01-04T11:56:02.648Z,21.5
2019-01-04T11:57:03.352Z,21.99
2019-01-04T11:58:04.861Z,21.99
2019-01-04T11:59:02.283Z,20.07
2019-01-04T12:00:03.359Z,20.58
2019-01-04T12:01:03.211Z,18.09
2019-01-04T12:02:03.169Z,20.82
2019-01-04T12:03:03.855Z,18.21
2019-01-04T12:04:03.634Z,18.21
2019-01-04T12:05:02.994Z,19.81
2019-01-04T12:06:03.540Z,20.36
2019-01-04T12:07:02.767Z,20.36
2019-01-04T12:08:03.703Z,19.15
2019-01-04T12:09:03.260Z,18.58
2019-01-04T12:10:03.434Z,18.58
2019-01-04T12:11:03.544Z,19.31
2019-01-04T12:12:05.377Z,20.12
2019-01-04T12:13:03.578Z,19.44
2019-01-04T12:14:03.380Z,19.6
2019-01-04T12:15:03.127Z,19.75
2019-01-04T12:16:02.830Z,19.75
2019-01-04T12:17:03.598Z,18.21
2019-01-04T12:18:05.130Z,18.21
2019-01-04T12:19:02.832Z,19.95
2019-01-04T12:20:03.611Z,18.84
2019-01-04T12:22:02.140Z,19.66
2019-01-04T12:23:03.429Z,17
2019-01-04T12:25:02.779Z,20.06
2019-01-04T12:26:03.338Z,19.86
2019-01-04T12:27:03.099Z,19.18
2019-01-04T12:28:03.812Z,18.91
2019-01-04T12:29:03.017Z,18.76
2019-01-04T12:30:02.836Z,18.76
2019-01-04T12:31:03.539Z,18.51
2019-01-04T12:32:03.598Z,18.03
2019-01-04T12:33:03.887Z,18.03
2019-01-04T12:34:03.997Z,18.81
2019-01-04T12:35:03.097Z,18.81
2019-01-04T12:36:02.779Z,18.47
2019-01-04T12:37:03.102Z,19.93
2019-01-04T12:38:03.678Z,19.53
2019-01-04T12:39:03.794Z,19.53
2019-01-04T12:40:04.232Z,19.04
2019-01-04T12:41:03.205Z,17.59
2019-01-04T12:44:03.578Z,18.79
2019-01-04T12:45:04.391Z,18.79
2019-01-04T12:46:03.643Z,18.77
2019-01-04T12:47:02.917Z,17.13
2019-01-04T12:48:03.919Z,18.92
2019-01-04T12:49:03.539Z,16.78
2019-01-04T12:50:04.235Z,16.92
2019-01-04T12:51:02.843Z,17.28
2019-01-04T12:52:04.085Z,17.36
2019-01-04T12:53:03.015Z,17.76
2019-01-04T12:54:03.068Z,16.79
2019-01-04T12:55:03.498Z,16.74
2019-01-04T12:56:03.978Z,15.14
2019-01-04T12:57:03.378Z,18.94
2019-01-04T12:58:02.827Z,16.61
2019-01-04T12:59:04.267Z,16.73
2019-01-04T13:00:03.731Z,17.21
2019-01-04T13:01:02.910Z,15.99
2019-01-04T13:02:02.774Z,16.18
2019-01-04T13:04:03.270Z,17.51
2019-01-04T13:06:03.934Z,17.98
2019-01-04T13:07:02.574Z,16.45
2019-01-04T13:08:03.557Z,16.2
2019-01-04T13:09:03.506Z,17.02
2019-01-04T13:10:04.037Z,16.82
2019-01-04T13:11:02.858Z,16.17
2019-01-04T13:12:03.211Z,15.95
2019-01-04T13:13:02.900Z,17.14
2019-01-04T13:14:03.591Z,15.52
2019-01-04T13:15:03.523Z,15.95
2019-01-04T13:16:03.399Z,15.06
2019-01-04T13:17:03.172Z,16.77
2019-01-04T13:18:03.816Z,17.3
2019-01-04T13:19:03.645Z,15.61
2019-01-04T13:20:03.522Z,15.99
2019-01-04T13:21:03.146Z,15.99
2019-01-04T13:22:03.040Z,15.99
2019-01-04T13:23:03.450Z,15.83
2019-01-04T13:24:03.675Z,14.76
2019-01-04T13:25:03.315Z,14.76
2019-01-04T13:26:03.454Z,15.32
2019-01-04T13:27:02.957Z,15.32